TUPJTNCM

Guest
Details From TUPJ - Tortola - Terrance B Lettsome Intl
To TNCM - St Maarten - Princess Juliana Intl
Flight Number -
Tags generated
Created
Modified
Stats Distance 85 nm / 158 km
Max Altitude 100 ft / 30 m
Waypoints 3
Social Downloads 5
Likes 0
Share VATSIM

Download

Looking for another format? Having issues loading an existing format? Contact us
Advertisement - Login to hide

Notes

Basic altitude profile: - Ascent Rate: 2500ft/min - Ascent Speed: 250kts - Cruise Altitude: 35000ft - Cruise Speed: 420kts - Descent Rate: 1500ft/min - Descent Speed: 250kts Options: - Use NATs: yes - Use PACOTS: yes - Use low airways: yes - Use high airways: yes

Route

TUPJ PJM TNCM

ID Type Via Altitude Latitude Longitude Leg Dist Tot Dist Heading (true) Name
O TUPJ APT - 0 ft / 0 m 18.44552˚ -64.54159˚ - 0 nm - Tortola - Terrance B Lettsome Intl
PJM VOR - 100 ft / 30 m 18.03811˚ -63.11828˚ 84 nm 84 nm 107° / 107° ST MAARTEN VOR-DME
O TNCM APT - 0 ft / 0 m 18.04089˚ -63.10897˚ 0 nm 85 nm 73° / 73° St Maarten - Princess Juliana Intl

Altitude Profile

Advertisement - Login to hide

TUPJ

Details ICAO TUPJ (EIS)
Name Tortola - Terrance B Lettsome Intl
Region UK (British Virgin Islands)
Timezone America/Tortola (UTC-4.0)
Stats Elevation 15 ft / 5 m (AMSL)
Location 18.445519° -64.541589°
Runways 1
Magnetic Variation 13.809° W

METAR

TUPJ 111500Z 07008KT 9999 SCT021 30/21 Q1015 RMK A2997

Decode

TAF

TAF TUPJ 111100Z 1112/1212 07009KT 9999 SCT019 PROB30 TEMPO 1112/1200 SHRA

Decode

Departure Runways

ID Width Length Bearing (true) Bearing (mag) Surface Threshold Offset Overrun Length
07 89 ft / 27 m 4,644 ft / 1,415 m 60.46° 74.27° Asphalt 489 ft / 149 m 0 ft / 0 m
25 89 ft / 27 m 4,644 ft / 1,415 m 240.47° 254.28° Asphalt 194 ft / 59 m 0 ft / 0 m

TNCM

Details ICAO TNCM (SXM)
Name St Maarten - Princess Juliana Intl
Region Caribbean Netherlands, Aruba, Curaçao, Sint Maarten
Timezone Unknown (UTC+0.0)
Stats Elevation 12 ft / 4 m (AMSL)
Location 18.040889° -63.108974°
Runways 1
Magnetic Variation 14.325° W

METAR

TNCM 111500Z 07012KT 040V110 9999 FEW022 29/21 Q1014 A2994 NOSIG

Decode

TAF

TAF TNCM 111141Z 1112/1212 06010KT P6SM FEW020

Decode

Destination Runways

ID Width Length Bearing (true) Bearing (mag) Surface Threshold Offset Overrun Length
10 148 ft / 45 m 7,464 ft / 2,275 m 81.43° 95.75° Asphalt 0 ft / 0 m 151 ft / 46 m
28 148 ft / 45 m 7,464 ft / 2,275 m 261.44° 275.76° Asphalt 397 ft / 121 m 0 ft / 0 m

Popular Alternatives